Airfield :
LOGIN :

Register | Disclaimer

   EN    FR    IT 

 










Legend :    VFR   Marginal VFR   IFR   Intensive IFR   Very Intensive IFR
Visi :
Ceiling :
>= 8 km
>= 3000ft
5 to 8 km
1000 to 3000 ft
1500m to 5 km
500 to 1000 ft
800 to 1500m
200 to 500 ft
< 800m
< 200 ft
Symbols :   Thunderstorms  Fog  Heavy snow  Heavy precipitations  Wind > 20 kt
SIGMETs :     Misc.  Thunderstorms  Icing  Turbulence  Mountain Waves  Volcanic Ashes






- Airport Elevation : 215 ft
- IATA code : ABZ


EGPD - Aberdeen / Dyce

CURRENT METAR :
  • 172150Z AUTO 26008KT 220V280 9999 NCD 04/M01 Q1007 NOSIG

EXPIRED METARs :
  • 172120Z AUTO 24007KT 200V280 9999 NCD 05/M01 Q1007 NOSIG
  • 172050Z AUTO 21005KT 150V260 9999 NCD 05/M00 Q1006 NOSIG
  • 172020Z AUTO 26008KT 230V020 9999 NCD 05/M00 Q1006 NOSIG
  • 171950Z AUTO 23006KT 190V260 9999 NCD 04/M01 Q1006 NOSIG
  • 171920Z AUTO 27007KT 9999 NCD 05/M01 Q1005

TAF TAF EGPD
Valid from the 17 at 18:00 until the 18 at 18:00 UTC


171703Z 1718/1818 24009KT 9999 FEW030
PROB30
TEMPO 1718/1721 6000 SHRA
TEMPO 1800/1818 28015G25KT
PROB30
TEMPO 1815/1818 29020G35KT



MET'MAP, your aeronautical weather chart ! - Copyright ORBIFLY December 2007 - Disclaimer

ORBIFLY MET'MAP TEAM :

Programming & Development : Alexandra Zaïnal
Concept & original design : Baudouin d'Aumeries
Assistance for programming : Marc-Olivier Méhu
Technical & hardware support : Manuel Goepfert

Contact : metmap@orbifly.com




SOURCES & CREDITS :

   NOAA